createdAt,value
2022-12-20T00:00:17.613Z,90.61
2022-12-20T00:02:45.530Z,90.29
2022-12-20T00:05:13.813Z,90.44
2022-12-20T00:07:41.587Z,90.48
2022-12-20T00:10:11.730Z,90.41
2022-12-20T00:12:39.516Z,90.47
2022-12-20T00:15:08.202Z,91.00
2022-12-20T00:17:36.030Z,90.53
2022-12-20T00:20:04.270Z,90.76
2022-12-20T00:22:32.147Z,90.25
2022-12-20T00:24:59.911Z,90.38
2022-12-20T00:27:29.798Z,90.62
2022-12-20T00:29:57.535Z,90.86
2022-12-20T00:32:25.407Z,90.72
2022-12-20T00:34:53.143Z,90.87
2022-12-20T00:37:20.963Z,90.79
2022-12-20T00:39:48.792Z,90.25
2022-12-20T00:42:16.703Z,90.28
2022-12-20T00:44:45.890Z,90.50
2022-12-20T00:47:13.726Z,90.50
2022-12-20T00:49:41.731Z,90.30
2022-12-20T00:52:09.589Z,90.45
2022-12-20T00:54:37.701Z,90.32
2022-12-20T00:57:05.506Z,90.33
2022-12-20T00:59:34.255Z,89.97
2022-12-20T01:02:03.787Z,89.94
2022-12-20T01:04:31.743Z,89.88
2022-12-20T01:06:59.530Z,89.77
2022-12-20T01:09:27.368Z,89.79
2022-12-20T01:11:55.123Z,89.59
2022-12-20T01:14:22.919Z,89.58
2022-12-20T01:16:50.706Z,89.47
2022-12-20T01:19:20.417Z,89.10
2022-12-20T01:21:48.310Z,89.31
2022-12-20T01:24:18.882Z,88.83
2022-12-20T01:26:47.200Z,88.98
2022-12-20T01:29:15.606Z,88.57
2022-12-20T01:31:44.280Z,88.24
2022-12-20T01:34:13.021Z,88.84
2022-12-20T01:36:42.569Z,88.44
2022-12-20T01:39:14.193Z,88.24
2022-12-20T01:41:43.102Z,87.99
2022-12-20T01:44:44.318Z,88.19
2022-12-20T01:47:14.447Z,88.12
2022-12-20T01:49:47.281Z,87.65
2022-12-20T01:52:20.530Z,87.83
2022-12-20T01:54:52.890Z,88.08
2022-12-20T01:57:25.388Z,88.34
2022-12-20T01:59:55.490Z,88.25
2022-12-20T02:02:23.869Z,88.61
2022-12-20T02:04:54.940Z,88.56
2022-12-20T02:07:29.970Z,88.22
2022-12-20T02:09:59.657Z,88.16
2022-12-20T02:12:28.367Z,87.82
2022-12-20T02:15:05.878Z,87.76
2022-12-20T02:17:46.424Z,87.83
2022-12-20T02:20:55.684Z,87.88
2022-12-20T02:23:46.128Z,87.45
2022-12-20T02:26:34.685Z,87.42
2022-12-20T02:29:20.766Z,87.30
2022-12-20T02:31:55.904Z,87.44
2022-12-20T02:34:25.979Z,87.49
2022-12-20T02:36:54.185Z,87.01
2022-12-20T02:39:25.079Z,86.99
2022-12-20T02:41:56.621Z,87.34
2022-12-20T02:44:48.826Z,88.18
2022-12-20T02:47:22.428Z,88.40
2022-12-20T02:49:51.740Z,88.13
2022-12-20T02:52:22.369Z,87.62
2022-12-20T02:54:50.635Z,87.24
2022-12-20T02:57:24.002Z,86.88
2022-12-20T02:59:59.225Z,87.53
2022-12-20T03:02:29.414Z,87.80
2022-12-20T03:04:59.817Z,87.55
2022-12-20T03:07:31.185Z,87.26
2022-12-20T03:09:58.954Z,87.38
2022-12-20T03:12:26.773Z,87.43
2022-12-20T03:14:54.480Z,87.34
2022-12-20T03:17:22.228Z,87.50
2022-12-20T03:19:51.423Z,87.38
2022-12-20T03:22:19.188Z,87.48
2022-12-20T03:24:46.983Z,86.55
2022-12-20T03:27:14.759Z,86.05
2022-12-20T03:29:42.659Z,86.14
2022-12-20T03:32:10.449Z,86.74
2022-12-20T03:34:38.230Z,86.41
2022-12-20T03:37:07.495Z,85.89
2022-12-20T03:39:35.249Z,86.87
2022-12-20T03:42:03.035Z,86.52
2022-12-20T03:44:30.855Z,86.49
2022-12-20T03:46:58.680Z,86.68
2022-12-20T03:49:26.391Z,87.32
2022-12-20T03:51:54.548Z,87.35
2022-12-20T03:54:23.713Z,86.83
2022-12-20T03:56:51.489Z,87.30
2022-12-20T03:59:19.376Z,88.09
2022-12-20T04:01:47.278Z,86.92
2022-12-20T04:04:16.301Z,86.27
2022-12-20T04:06:44.303Z,86.70
2022-12-20T04:09:12.155Z,86.94
2022-12-20T04:11:41.354Z,86.98
2022-12-20T04:14:09.187Z,86.88
2022-12-20T04:16:37.282Z,87.54
2022-12-20T04:19:05.365Z,88.22
2022-12-20T04:21:34.999Z,88.38
2022-12-20T04:24:03.957Z,88.18
2022-12-20T04:26:31.862Z,88.17
2022-12-20T04:29:01.437Z,87.36
2022-12-20T04:31:32.005Z,87.30
2022-12-20T04:33:59.904Z,87.69
2022-12-20T04:36:27.911Z,88.08
2022-12-20T04:38:55.735Z,87.28
2022-12-20T04:41:23.556Z,88.03
2022-12-20T04:43:52.689Z,87.57
2022-12-20T04:46:23.324Z,87.54
2022-12-20T04:48:59.821Z,88.20
2022-12-20T04:51:28.491Z,88.94
2022-12-20T04:53:55.987Z,88.56
2022-12-20T04:56:25.172Z,88.02
2022-12-20T04:58:55.018Z,88.70
2022-12-20T05:01:24.459Z,89.08
2022-12-20T05:03:52.688Z,88.73
2022-12-20T05:06:20.568Z,89.23
2022-12-20T05:08:48.643Z,88.78
2022-12-20T05:11:16.725Z,88.29
2022-12-20T05:13:44.515Z,88.30
2022-12-20T05:16:12.389Z,87.78
2022-12-20T05:18:48.193Z,88.52
2022-12-20T05:21:33.910Z,88.78
2022-12-20T05:24:19.427Z,88.95
2022-12-20T05:26:47.328Z,88.64
2022-12-20T05:29:16.859Z,88.33
2022-12-20T05:31:44.589Z,87.86
2022-12-20T05:34:13.857Z,87.28
2022-12-20T05:36:41.709Z,87.51
2022-12-20T05:39:11.620Z,87.17
2022-12-20T05:41:40.461Z,87.63
2022-12-20T05:44:08.899Z,87.37
2022-12-20T05:46:36.802Z,87.41
2022-12-20T05:49:04.820Z,87.59
2022-12-20T05:51:34.010Z,87.19
2022-12-20T05:54:01.800Z,87.15
2022-12-20T05:56:29.663Z,87.95
2022-12-20T05:58:58.994Z,88.61
2022-12-20T06:01:26.869Z,88.25
2022-12-20T06:03:54.856Z,88.26
2022-12-20T06:06:22.641Z,87.73
2022-12-20T06:08:51.903Z,87.54
2022-12-20T06:11:22.037Z,88.09
2022-12-20T06:13:53.966Z,87.55
2022-12-20T06:16:23.335Z,86.73
2022-12-20T06:18:51.251Z,86.88
2022-12-20T06:21:19.115Z,87.62
2022-12-20T06:23:47.423Z,87.42
2022-12-20T06:26:16.779Z,87.76
2022-12-20T06:28:44.662Z,88.18
2022-12-20T06:31:13.038Z,88.43
2022-12-20T06:33:40.925Z,88.63
2022-12-20T06:36:09.103Z,88.46
2022-12-20T06:38:37.222Z,88.92
2022-12-20T06:41:05.167Z,89.57
2022-12-20T06:43:34.287Z,89.31
2022-12-20T06:46:02.074Z,89.24
2022-12-20T06:48:31.011Z,89.15
2022-12-20T06:50:58.852Z,89.95
2022-12-20T06:53:26.656Z,90.47
2022-12-20T06:55:54.589Z,90.40
2022-12-20T06:58:22.840Z,90.83
2022-12-20T07:00:52.125Z,90.39
2022-12-20T07:03:20.480Z,90.36
2022-12-20T07:05:52.931Z,90.56
2022-12-20T07:08:20.881Z,91.21
2022-12-20T07:10:49.176Z,90.99
2022-12-20T07:13:17.675Z,90.24
2022-12-20T07:15:45.729Z,90.21
2022-12-20T07:18:14.944Z,90.58
2022-12-20T07:20:42.762Z,91.22
2022-12-20T07:23:10.527Z,90.92
2022-12-20T07:25:38.253Z,91.42
2022-12-20T07:28:06.791Z,91.08
2022-12-20T07:30:34.568Z,91.05
2022-12-20T07:33:02.357Z,91.02
2022-12-20T07:35:31.515Z,91.16
2022-12-20T07:38:00.336Z,91.90
2022-12-20T07:40:28.224Z,92.29
2022-12-20T07:42:56.027Z,91.68
2022-12-20T07:45:24.067Z,92.19
2022-12-20T07:47:51.898Z,92.14
2022-12-20T07:50:19.651Z,92.30
2022-12-20T07:52:50.946Z,92.80
2022-12-20T07:55:19.487Z,93.37
2022-12-20T07:57:50.676Z,93.04
2022-12-20T08:00:19.760Z,92.96
2022-12-20T08:02:52.331Z,92.40
2022-12-20T08:05:20.380Z,92.79
2022-12-20T08:07:55.089Z,93.01
2022-12-20T08:10:26.850Z,92.92
2022-12-20T08:12:55.762Z,93.29
2022-12-20T08:15:24.228Z,92.71
2022-12-20T08:17:52.086Z,92.95
2022-12-20T08:20:20.327Z,92.96
2022-12-20T08:22:49.521Z,92.66
2022-12-20T08:25:17.530Z,92.93
2022-12-20T08:27:45.645Z,93.12
2022-12-20T08:30:14.477Z,93.36
2022-12-20T08:32:42.643Z,93.52
2022-12-20T08:35:12.917Z,93.35
2022-12-20T08:37:40.739Z,93.14
2022-12-20T08:40:11.330Z,93.26
2022-12-20T08:42:39.447Z,93.10
2022-12-20T08:45:07.944Z,93.12
2022-12-20T08:47:35.699Z,93.28
2022-12-20T08:50:03.560Z,92.98
2022-12-20T08:52:31.539Z,93.03
2022-12-20T08:55:01.425Z,92.67
2022-12-20T08:57:31.361Z,93.33
2022-12-20T08:59:59.158Z,92.85
2022-12-20T09:02:27.747Z,92.89
2022-12-20T09:04:55.906Z,93.00
2022-12-20T09:07:23.691Z,92.84
2022-12-20T09:09:51.435Z,92.62
2022-12-20T09:12:19.218Z,93.15
2022-12-20T09:14:48.336Z,93.09
2022-12-20T09:17:16.057Z,92.90
2022-12-20T09:19:43.826Z,92.53
2022-12-20T09:22:11.609Z,92.85
2022-12-20T09:24:39.466Z,92.82
2022-12-20T09:27:07.249Z,92.40
2022-12-20T09:29:35.854Z,92.13
2022-12-20T09:32:05.387Z,91.43
2022-12-20T09:34:33.303Z,90.68
2022-12-20T09:37:01.130Z,91.46
2022-12-20T09:39:28.912Z,91.65
2022-12-20T09:41:56.840Z,91.14
2022-12-20T09:44:28.380Z,91.65
2022-12-20T09:47:04.966Z,91.73
2022-12-20T09:49:40.710Z,91.64
2022-12-20T09:52:29.387Z,91.22
2022-12-20T09:55:08.911Z,91.37
2022-12-20T09:57:53.480Z,90.80
2022-12-20T10:00:22.298Z,90.96
2022-12-20T10:03:06.676Z,90.72
2022-12-20T10:05:45.937Z,90.83
2022-12-20T10:08:23.690Z,90.56
2022-12-20T10:10:56.020Z,90.26
2022-12-20T10:13:53.858Z,90.84
2022-12-20T10:16:34.714Z,91.08
2022-12-20T10:19:14.788Z,90.76
2022-12-20T10:21:52.532Z,90.04
2022-12-20T10:24:22.398Z,89.95
2022-12-20T10:26:52.329Z,90.12
2022-12-20T10:29:21.436Z,90.47
2022-12-20T10:31:52.117Z,89.63
2022-12-20T10:34:19.988Z,90.19
2022-12-20T10:36:51.041Z,89.81
2022-12-20T10:39:39.270Z,90.18
2022-12-20T10:42:26.438Z,89.94
2022-12-20T10:44:54.867Z,89.62
2022-12-20T10:47:36.913Z,89.65
2022-12-20T10:50:25.979Z,90.63
2022-12-20T10:53:18.254Z,90.05
2022-12-20T10:55:46.132Z,89.83
2022-12-20T10:58:17.183Z,89.98
2022-12-20T11:00:45.964Z,90.73
2022-12-20T11:03:17.704Z,90.48
2022-12-20T11:05:57.258Z,90.02
2022-12-20T11:08:40.939Z,90.26
2022-12-20T11:11:18.723Z,90.18
2022-12-20T11:13:47.945Z,89.47
2022-12-20T11:16:28.729Z,89.76
2022-12-20T11:19:04.411Z,89.53
2022-12-20T11:21:42.505Z,89.63
2022-12-20T11:24:18.473Z,89.95
2022-12-20T11:27:15.249Z,88.63
2022-12-20T11:30:03.849Z,87.94
2022-12-20T11:32:49.027Z,88.80
2022-12-20T11:35:22.536Z,88.07
2022-12-20T11:38:09.153Z,88.60
2022-12-20T11:40:46.229Z,88.31
2022-12-20T11:43:28.644Z,87.49
2022-12-20T11:46:10.040Z,87.84
2022-12-20T11:49:03.017Z,88.08
2022-12-20T11:51:40.742Z,87.27
2022-12-20T11:54:14.617Z,86.48
2022-12-20T11:56:48.213Z,86.75
2022-12-20T11:59:23.469Z,86.28
2022-12-20T12:01:57.899Z,86.43
2022-12-20T12:04:28.669Z,86.56
2022-12-20T12:07:02.993Z,86.54
2022-12-20T12:09:37.684Z,86.71
2022-12-20T12:12:14.215Z,86.41
2022-12-20T12:14:52.525Z,86.89
2022-12-20T12:17:27.559Z,86.36
2022-12-20T12:20:02.918Z,86.28
2022-12-20T12:22:36.377Z,86.66
2022-12-20T12:25:12.709Z,86.23
2022-12-20T12:27:41.971Z,86.66
2022-12-20T12:30:14.603Z,86.67
2022-12-20T12:32:48.249Z,86.60
2022-12-20T12:35:32.141Z,85.77
2022-12-20T12:38:18.993Z,86.09
2022-12-20T12:41:03.515Z,85.87
2022-12-20T12:43:46.990Z,86.49
2022-12-20T12:46:17.339Z,86.43
2022-12-20T12:48:50.657Z,86.33
2022-12-20T12:51:25.353Z,86.12
2022-12-20T12:53:54.795Z,85.92
2022-12-20T12:56:44.627Z,86.23
2022-12-20T12:59:50.096Z,85.37
2022-12-20T13:02:36.975Z,85.04
2022-12-20T13:05:34.879Z,85.36
2022-12-20T13:08:03.161Z,84.62
2022-12-20T13:11:02.639Z,84.93
2022-12-20T13:13:30.721Z,85.59
2022-12-20T13:19:34.659Z,85.02
2022-12-20T13:22:21.884Z,85.39
2022-12-20T13:24:56.803Z,84.77
2022-12-20T13:27:34.498Z,84.80
2022-12-20T13:30:27.503Z,85.19
2022-12-20T13:33:21.467Z,85.04
2022-12-20T13:35:59.848Z,84.82
2022-12-20T13:38:51.683Z,84.63
2022-12-20T13:41:34.425Z,85.42
2022-12-20T13:44:20.426Z,84.93
2022-12-20T13:46:52.044Z,84.87
2022-12-20T13:49:26.659Z,84.44
2022-12-20T13:52:17.010Z,84.88
2022-12-20T13:54:48.793Z,84.74
2022-12-20T13:57:21.027Z,84.38
2022-12-20T13:59:51.110Z,84.62
2022-12-20T14:02:24.588Z,83.48
2022-12-20T14:04:59.490Z,83.48
2022-12-20T14:07:30.776Z,83.89
2022-12-20T14:10:00.883Z,85.78
2022-12-20T14:12:36.437Z,84.26
2022-12-20T14:15:22.118Z,83.46
2022-12-20T14:17:50.056Z,83.01
2022-12-20T14:20:21.664Z,83.42
2022-12-20T14:23:04.229Z,83.18
2022-12-20T14:25:38.347Z,83.65
2022-12-20T14:28:13.537Z,83.48
2022-12-20T14:30:44.651Z,83.62
2022-12-20T14:33:21.984Z,83.71
2022-12-20T14:35:51.005Z,82.88
2022-12-20T14:38:30.475Z,83.58
2022-12-20T14:40:58.431Z,82.51
2022-12-20T14:43:30.041Z,83.22
2022-12-20T14:46:19.139Z,82.21
2022-12-20T14:48:47.726Z,83.02
2022-12-20T14:51:21.829Z,82.49
2022-12-20T14:53:53.354Z,82.52
2022-12-20T14:56:31.492Z,83.04
2022-12-20T14:59:07.889Z,83.12
2022-12-20T15:01:41.719Z,82.46
2022-12-20T15:04:26.021Z,83.24
2022-12-20T15:06:53.971Z,82.62
2022-12-20T15:09:23.381Z,82.60
2022-12-20T15:11:52.684Z,81.98
2022-12-20T15:14:29.638Z,82.66
2022-12-20T15:16:58.376Z,82.01
2022-12-20T15:19:26.197Z,82.23
2022-12-20T15:21:54.363Z,82.50
2022-12-20T15:24:26.816Z,82.49
2022-12-20T15:26:54.644Z,82.99
2022-12-20T15:29:24.622Z,82.47
2022-12-20T15:31:58.258Z,82.84
2022-12-20T15:34:36.699Z,82.98
2022-12-20T15:37:06.371Z,83.11
2022-12-20T15:39:37.634Z,82.11
2022-12-20T15:42:06.687Z,82.22
2022-12-20T15:44:36.156Z,82.73
2022-12-20T15:47:04.176Z,82.08
2022-12-20T15:49:33.376Z,82.60
2022-12-20T15:52:01.324Z,81.67
2022-12-20T15:54:31.601Z,82.17
2022-12-20T15:57:03.069Z,83.01
2022-12-20T15:59:59.053Z,83.61
2022-12-20T16:02:22.927Z,83.93
2022-12-20T16:04:51.614Z,84.62
2022-12-20T16:07:19.691Z,84.36
2022-12-20T16:09:47.607Z,84.62
2022-12-20T16:12:19.202Z,84.18
2022-12-20T16:14:47.035Z,84.40
2022-12-20T16:17:15.884Z,84.94
2022-12-20T16:19:44.381Z,84.84
2022-12-20T16:22:17.019Z,84.96
2022-12-20T16:24:44.992Z,84.02
2022-12-20T16:27:12.815Z,84.62
2022-12-20T16:29:42.090Z,85.22
2022-12-20T16:32:15.474Z,84.66
2022-12-20T16:34:43.297Z,84.37
2022-12-20T16:37:12.480Z,84.42
2022-12-20T16:39:40.490Z,84.74
2022-12-20T16:42:13.366Z,83.92
2022-12-20T16:44:44.755Z,84.35
2022-12-20T16:47:13.214Z,83.91
2022-12-20T16:49:45.804Z,84.21
2022-12-20T16:54:25.102Z,83.98
2022-12-20T16:56:55.971Z,83.88
2022-12-20T16:59:24.086Z,84.05
2022-12-20T17:01:55.405Z,83.93
2022-12-20T17:04:24.624Z,83.52
2022-12-20T17:06:52.577Z,83.89
2022-12-20T17:12:15.456Z,84.04
2022-12-20T17:14:43.359Z,84.85
2022-12-20T17:17:11.335Z,83.67
2022-12-20T17:19:39.321Z,84.05
2022-12-20T17:24:53.482Z,82.02
2022-12-20T17:27:22.673Z,82.18
2022-12-20T17:29:52.075Z,83.05
2022-12-20T17:32:21.790Z,83.09
2022-12-20T17:34:49.492Z,82.26
2022-12-20T17:37:17.575Z,83.12
2022-12-20T17:39:45.444Z,82.98
2022-12-20T17:42:14.472Z,82.94
2022-12-20T17:44:44.117Z,82.68
2022-12-20T17:47:12.414Z,82.26
2022-12-20T17:49:40.647Z,83.20
2022-12-20T17:52:13.687Z,82.61
2022-12-20T17:54:41.612Z,83.04
2022-12-20T17:57:15.267Z,82.35
2022-12-20T17:59:45.407Z,83.01
2022-12-20T18:02:25.553Z,81.50
2022-12-20T18:04:53.846Z,80.78
2022-12-20T18:07:21.639Z,80.62
2022-12-20T18:09:49.897Z,80.82
2022-12-20T18:12:18.265Z,81.17
2022-12-20T18:14:49.318Z,81.42
2022-12-20T18:17:17.509Z,82.69
2022-12-20T18:19:45.608Z,82.68
2022-12-20T18:22:13.734Z,83.66
2022-12-20T18:24:41.540Z,82.99
2022-12-20T18:27:09.419Z,83.12
2022-12-20T18:29:37.225Z,82.88
2022-12-20T18:32:06.888Z,83.26
2022-12-20T18:34:34.615Z,83.81
2022-12-20T18:37:05.443Z,83.72
2022-12-20T18:39:33.411Z,83.41
2022-12-20T18:42:01.227Z,83.60
2022-12-20T18:44:28.957Z,83.78
2022-12-20T18:46:56.720Z,83.58
2022-12-20T18:49:26.029Z,83.87
2022-12-20T18:51:53.975Z,82.95
2022-12-20T18:54:21.888Z,82.47
2022-12-20T18:56:50.738Z,82.90
2022-12-20T18:59:18.708Z,82.81
2022-12-20T19:01:46.559Z,82.67
2022-12-20T19:04:17.965Z,82.52
2022-12-20T19:06:50.125Z,82.28
2022-12-20T19:09:21.165Z,82.58
2022-12-20T19:11:54.636Z,82.16
2022-12-20T19:14:27.883Z,81.53
2022-12-20T19:16:55.672Z,81.75
2022-12-20T19:19:25.451Z,81.77
2022-12-20T19:21:54.437Z,82.25
2022-12-20T19:24:22.404Z,82.16
2022-12-20T19:26:52.930Z,81.61
2022-12-20T19:29:20.830Z,83.60
2022-12-20T19:31:50.879Z,83.25
2022-12-20T19:34:18.748Z,83.97
2022-12-20T19:36:48.307Z,84.70
2022-12-20T19:39:20.968Z,85.26
2022-12-20T19:44:37.125Z,85.77
2022-12-20T19:47:05.075Z,85.78
2022-12-20T19:49:32.835Z,85.99
2022-12-20T19:52:00.691Z,86.73
2022-12-20T19:54:30.009Z,85.70
2022-12-20T19:56:58.529Z,86.20
2022-12-20T19:59:26.427Z,86.22
2022-12-20T20:01:54.384Z,87.51
2022-12-20T20:04:22.312Z,86.78
2022-12-20T20:06:50.048Z,86.99
2022-12-20T20:09:18.043Z,86.79
2022-12-20T20:11:47.610Z,86.64
2022-12-20T20:14:15.721Z,86.53
2022-12-20T20:16:43.935Z,86.58
2022-12-20T20:19:11.750Z,86.29
2022-12-20T20:21:40.241Z,85.72
2022-12-20T20:24:09.765Z,86.50
2022-12-20T20:26:37.751Z,85.65
2022-12-20T20:29:07.226Z,86.67
2022-12-20T20:31:35.139Z,86.31
2022-12-20T20:34:03.187Z,85.23
2022-12-20T20:36:30.974Z,85.70
2022-12-20T20:38:59.049Z,85.37
2022-12-20T20:41:26.886Z,84.42
2022-12-20T20:43:54.762Z,84.05
2022-12-20T20:46:24.025Z,84.61
2022-12-20T20:48:51.915Z,85.65
2022-12-20T20:51:19.794Z,86.18
2022-12-20T20:53:47.569Z,85.07
2022-12-20T20:56:15.547Z,85.06
2022-12-20T20:58:43.912Z,85.13
2022-12-20T21:01:12.142Z,84.62
2022-12-20T21:03:42.240Z,85.32
2022-12-20T21:09:01.158Z,84.25
2022-12-20T21:11:29.499Z,84.42
2022-12-20T21:13:57.666Z,83.75
2022-12-20T21:16:26.045Z,83.87
2022-12-20T21:18:56.895Z,84.94
2022-12-20T21:21:26.493Z,83.55
2022-12-20T21:23:55.098Z,83.42
2022-12-20T21:26:25.198Z,83.95
2022-12-20T21:28:57.896Z,83.90
2022-12-20T21:31:26.035Z,84.43
2022-12-20T21:33:56.531Z,83.24
2022-12-20T21:36:24.964Z,84.08
2022-12-20T21:38:54.458Z,84.89
2022-12-20T21:41:24.058Z,84.04
2022-12-20T21:43:52.262Z,84.93
2022-12-20T21:46:20.045Z,84.82
2022-12-20T21:48:48.017Z,84.46
2022-12-20T21:51:19.406Z,84.79
2022-12-20T21:53:48.654Z,85.25
2022-12-20T21:56:16.842Z,85.36
2022-12-20T21:58:44.996Z,85.88
2022-12-20T22:01:15.471Z,85.29
2022-12-20T22:03:44.298Z,84.57
2022-12-20T22:06:12.729Z,84.96
2022-12-20T22:08:41.959Z,84.61
2022-12-20T22:11:11.720Z,84.78
2022-12-20T22:13:41.881Z,84.54
2022-12-20T22:16:11.600Z,84.42
2022-12-20T22:18:40.186Z,84.26
2022-12-20T22:21:09.500Z,84.75
2022-12-20T22:23:38.149Z,84.61
2022-12-20T22:26:09.886Z,84.60
2022-12-20T22:28:38.254Z,83.04
2022-12-20T22:31:09.344Z,83.80
2022-12-20T22:33:37.612Z,84.07
2022-12-20T22:36:06.089Z,84.16
2022-12-20T22:38:34.465Z,84.73
2022-12-20T22:41:10.617Z,84.64
2022-12-20T22:43:39.308Z,84.59
2022-12-20T22:46:07.637Z,85.27
2022-12-20T22:48:35.584Z,84.60
2022-12-20T22:51:06.329Z,85.11
2022-12-20T22:53:35.200Z,85.18
2022-12-20T22:56:03.411Z,85.83
2022-12-20T22:58:33.191Z,85.83
2022-12-20T23:01:02.912Z,85.36
2022-12-20T23:03:31.020Z,85.04
2022-12-20T23:06:00.587Z,85.01
2022-12-20T23:08:30.854Z,85.12
2022-12-20T23:11:16.386Z,85.02
2022-12-20T23:14:03.303Z,85.40
2022-12-20T23:16:31.246Z,85.44
2022-12-20T23:19:01.372Z,84.99
2022-12-20T23:21:47.821Z,84.98
2022-12-20T23:24:15.891Z,84.39
2022-12-20T23:26:44.560Z,85.33
2022-12-20T23:29:14.385Z,84.62
2022-12-20T23:31:42.209Z,85.25
2022-12-20T23:34:10.092Z,85.37
2022-12-20T23:36:38.159Z,85.94
2022-12-20T23:39:06.630Z,85.86
2022-12-20T23:41:34.563Z,86.52
2022-12-20T23:44:04.999Z,85.70
2022-12-20T23:46:34.784Z,86.54
2022-12-20T23:49:02.563Z,87.06
2022-12-20T23:51:30.486Z,87.52
2022-12-20T23:53:58.285Z,87.34
2022-12-20T23:56:26.061Z,87.51
2022-12-20T23:58:55.931Z,88.29
